Time;durP1;ratioP1;P1;durP2;ratioP2;P2;SDS_P1;SDS_P2;PMS_P1;PMS_P2;Temp;Humidity;BMP_temperature;BMP_pressure;BME280_temperature;BME280_humidity;BME280_pressure;Samples;Min_cycle;Max_cycle;Signal;HPM_P1;HPM_P2
2021/09/09 00:01:25;;;;;;;33.03;21.52;;;13.00;68.80;;;;;;5096935;28;20059;-71
2021/09/09 00:03:51;;;;;;;37.75;22.50;;;13.00;68.40;;;;;;5115545;28;20020;-71
2021/09/09 00:06:16;;;;;;;39.38;21.73;;;13.00;68.50;;;;;;5115156;28;20480;-72
2021/09/09 00:08:45;;;;;;;35.28;21.50;;;12.90;68.60;;;;;;5115609;28;20035;-72
2021/09/09 00:11:11;;;;;;;36.67;22.38;;;12.90;68.70;;;;;;5096405;28;20062;-71
2021/09/09 00:13:37;;;;;;;35.28;22.40;;;12.80;68.70;;;;;;5114843;28;20399;-71
2021/09/09 00:16:03;;;;;;;41.92;22.95;;;12.80;68.90;;;;;;5115035;28;20031;-71
2021/09/09 00:18:29;;;;;;;38.30;22.30;;;12.80;69.00;;;;;;5115442;28;20050;-69
2021/09/09 00:20:55;;;;;;;95.78;66.35;;;12.80;69.10;;;;;;5115136;28;20028;-70
2021/09/09 00:23:20;;;;;;;36.53;24.58;;;12.70;69.10;;;;;;5096342;28;20023;-70
2021/09/09 00:25:46;;;;;;;36.15;21.90;;;12.70;69.20;;;;;;5114536;28;20020;-71
2021/09/09 00:28:12;;;;;;;35.58;21.40;;;12.70;69.40;;;;;;5114464;28;20428;-71
2021/09/09 00:30:38;;;;;;;36.55;21.00;;;12.60;69.40;;;;;;5114633;28;20027;-71
2021/09/09 00:33:06;;;;;;;36.55;20.80;;;12.60;69.60;;;;;;5096481;28;20535;-72
2021/09/09 00:35:32;;;;;;;30.05;20.77;;;12.60;69.70;;;;;;5115188;28;20526;-72
2021/09/09 00:37:58;;;;;;;33.58;20.33;;;12.50;69.80;;;;;;5114698;28;20112;-72
2021/09/09 00:40:27;;;;;;;35.22;20.65;;;12.50;69.90;;;;;;5114750;28;20474;-72
2021/09/09 00:42:53;;;;;;;31.80;19.58;;;12.50;70.00;;;;;;5114432;28;20466;-72
2021/09/09 00:45:19;;;;;;;40.67;21.75;;;12.50;70.10;;;;;;5114718;28;20027;-70
2021/09/09 00:47:44;;;;;;;27.67;19.35;;;12.50;70.20;;;;;;5115153;28;20035;-69
2021/09/09 00:50:12;;;;;;;36.40;19.83;;;12.40;70.40;;;;;;5097147;28;20034;-71
2021/09/09 00:52:41;;;;;;;29.05;19.40;;;12.40;70.50;;;;;;5114883;28;20031;-69
2021/09/09 00:55:08;;;;;;;32.13;20.13;;;12.40;70.70;;;;;;5114020;28;20028;-69
2021/09/09 00:57:34;;;;;;;31.40;20.27;;;12.40;70.80;;;;;;5113777;28;20424;-69
2021/09/09 00:59:59;;;;;;;31.67;19.85;;;12.30;70.90;;;;;;5114003;28;20032;-70
2021/09/09 01:02:25;;;;;;;36.08;20.02;;;12.30;70.90;;;;;;5113938;28;20062;-71
2021/09/09 01:04:51;;;;;;;33.38;19.60;;;12.30;71.10;;;;;;5114036;28;20077;-71
2021/09/09 01:07:17;;;;;;;32.47;20.10;;;12.30;71.20;;;;;;5113911;28;20050;-71
2021/09/09 01:09:43;;;;;;;34.42;20.75;;;12.20;71.30;;;;;;5095670;28;20095;-71
2021/09/09 01:12:09;;;;;;;30.55;19.67;;;12.20;71.50;;;;;;5113886;28;20034;-70
2021/09/09 01:14:34;;;;;;;35.75;21.15;;;12.20;71.60;;;;;;5095736;28;20028;-71
2021/09/09 01:17:00;;;;;;;30.48;20.08;;;12.20;71.70;;;;;;5114192;28;20019;-70
2021/09/09 01:19:26;;;;;;;29.58;19.70;;;12.10;71.90;;;;;;5114119;28;20485;-70
2021/09/09 01:21:52;;;;;;;34.00;20.75;;;12.10;72.00;;;;;;5113664;28;20037;-70
2021/09/09 01:24:20;;;;;;;35.42;20.98;;;12.10;72.10;;;;;;5113282;28;20518;-70
2021/09/09 01:26:59;;;;;;;32.38;20.45;;;12.10;72.20;;;;;;5095698;28;20015;-70
2021/09/09 01:29:28;;;;;;;32.40;20.73;;;12.10;72.30;;;;;;5114127;28;20818;-70
2021/09/09 01:31:55;;;;;;;31.30;19.20;;;12.10;72.40;;;;;;5113952;28;20145;-70
2021/09/09 01:34:21;;;;;;;32.92;19.70;;;12.00;72.50;;;;;;5113634;28;20049;-70
2021/09/09 01:36:48;;;;;;;33.78;19.63;;;12.00;72.60;;;;;;5095009;28;20385;-71
2021/09/09 01:39:14;;;;;;;31.17;19.92;;;12.00;72.60;;;;;;5113469;28;20024;-71
2021/09/09 01:41:40;;;;;;;29.40;19.63;;;12.00;72.70;;;;;;5113234;28;20039;-70
2021/09/09 01:44:06;;;;;;;30.88;20.42;;;12.00;72.80;;;;;;5113055;28;20701;-70
2021/09/09 01:46:33;;;;;;;31.27;20.13;;;12.00;72.80;;;;;;5113142;28;20085;-71
2021/09/09 01:48:59;;;;;;;32.97;19.60;;;12.00;72.90;;;;;;5095008;28;20379;-70
2021/09/09 01:51:26;;;;;;;29.08;19.42;;;12.00;73.00;;;;;;5113200;28;20073;-71
2021/09/09 01:53:53;;;;;;;33.60;20.45;;;11.90;73.00;;;;;;5113317;28;20546;-71
2021/09/09 01:56:18;;;;;;;31.33;19.52;;;11.90;73.00;;;;;;5113391;28;20027;-70
2021/09/09 01:58:44;;;;;;;30.63;19.95;;;11.90;73.20;;;;;;5113393;28;20595;-70
2021/09/09 02:01:10;;;;;;;29.10;19.10;;;11.90;73.30;;;;;;5113459;28;20028;-70
2021/09/09 02:03:36;;;;;;;29.00;20.10;;;11.90;73.30;;;;;;5113387;28;20027;-71
2021/09/09 02:06:02;;;;;;;30.50;20.10;;;11.80;73.30;;;;;;5112860;28;20020;-70
2021/09/09 02:08:28;;;;;;;32.25;21.45;;;11.90;73.40;;;;;;5112887;28;20381;-70
2021/09/09 02:10:54;;;;;;;32.13;19.85;;;11.80;73.40;;;;;;5112662;28;20027;-71
2021/09/09 02:13:19;;;;;;;33.13;20.13;;;11.80;74.00;;;;;;5113059;28;20335;-70
2021/09/09 02:15:45;;;;;;;29.13;19.58;;;11.80;73.50;;;;;;5112886;28;20057;-70
2021/09/09 02:18:11;;;;;;;31.23;19.80;;;11.80;73.60;;;;;;5112682;28;20164;-70
2021/09/09 02:20:37;;;;;;;29.83;19.60;;;11.80;73.60;;;;;;5112759;28;20070;-71
2021/09/09 02:23:03;;;;;;;33.53;20.05;;;11.80;73.80;;;;;;5112433;28;20107;-70
2021/09/09 02:25:29;;;;;;;29.45;18.50;;;11.70;73.80;;;;;;5094512;28;20149;-69
2021/09/09 02:27:55;;;;;;;35.80;19.35;;;11.70;73.90;;;;;;5112509;28;20393;-70
2021/09/09 02:30:21;;;;;;;33.85;19.75;;;11.70;74.00;;;;;;5112476;28;20429;-70
2021/09/09 02:32:46;;;;;;;31.98;19.98;;;11.70;74.00;;;;;;5112726;28;20347;-70
2021/09/09 02:35:12;;;;;;;30.20;20.15;;;11.70;74.10;;;;;;5113135;28;20061;-70
2021/09/09 02:37:38;;;;;;;34.60;19.77;;;11.70;74.20;;;;;;5098610;28;20031;-70
2021/09/09 02:40:06;;;;;;;30.38;19.70;;;11.60;74.20;;;;;;5116694;28;20380;-70
2021/09/09 02:42:32;;;;;;;30.90;19.70;;;11.60;74.20;;;;;;5116954;28;20011;-71
2021/09/09 02:44:57;;;;;;;37.85;19.42;;;11.60;74.20;;;;;;5116824;28;20462;-70
2021/09/09 02:47:23;;;;;;;30.85;20.25;;;11.60;74.30;;;;;;5116680;28;20023;-70
2021/09/09 02:49:49;;;;;;;33.20;20.27;;;11.60;74.40;;;;;;5116616;28;20051;-71
2021/09/09 02:52:14;;;;;;;35.72;20.02;;;11.60;74.50;;;;;;5098240;28;20417;-69
2021/09/09 02:54:40;;;;;;;29.17;20.30;;;11.60;74.60;;;;;;5116145;28;20094;-69
2021/09/09 02:57:06;;;;;;;31.88;20.35;;;11.60;74.70;;;;;;5098223;28;20388;-69
2021/09/09 02:59:32;;;;;;;31.45;20.13;;;11.50;74.70;;;;;;5116369;28;20068;-69
2021/09/09 03:01:58;;;;;;;29.83;20.27;;;11.50;74.80;;;;;;5116291;28;20055;-70
2021/09/09 03:04:23;;;;;;;31.65;19.98;;;11.50;74.90;;;;;;5098061;28;20027;-70
2021/09/09 03:06:49;;;;;;;31.70;20.88;;;11.50;75.00;;;;;;5116114;28;20106;-69
2021/09/09 03:09:15;;;;;;;26.42;19.55;;;11.50;75.10;;;;;;5116254;28;20032;-70
2021/09/09 03:11:40;;;;;;;34.10;21.23;;;11.50;75.20;;;;;;5116258;28;20019;-71
2021/09/09 03:14:06;;;;;;;32.17;20.52;;;11.40;75.20;;;;;;5116111;28;20023;-72
2021/09/09 03:16:32;;;;;;;31.15;20.52;;;11.50;75.30;;;;;;5116219;28;20102;-70
2021/09/09 03:18:57;;;;;;;32.50;20.98;;;11.40;75.30;;;;;;5097850;28;20027;-70
2021/09/09 03:21:23;;;;;;;33.35;21.33;;;11.40;75.40;;;;;;5097953;28;20024;-72
2021/09/09 03:23:49;;;;;;;28.92;20.15;;;11.40;75.40;;;;;;5097840;28;20019;-71
2021/09/09 03:26:15;;;;;;;29.05;19.83;;;11.40;75.40;;;;;;5115857;28;20047;-71
2021/09/09 03:28:40;;;;;;;33.40;20.13;;;11.50;75.50;;;;;;5115432;28;20020;-70
2021/09/09 03:31:06;;;;;;;29.50;19.25;;;11.60;75.50;;;;;;5115918;28;20032;-71
2021/09/09 03:33:32;;;;;;;30.48;18.92;;;11.70;75.40;;;;;;5115817;28;20027;-71
2021/09/09 03:35:58;;;;;;;34.17;18.92;;;11.80;75.20;;;;;;5115663;28;20377;-71
2021/09/09 03:38:23;;;;;;;29.73;19.40;;;12.10;74.80;;;;;;5115333;28;20032;-70
2021/09/09 03:40:49;;;;;;;28.75;18.85;;;12.40;74.20;;;;;;5115541;28;20026;-72
2021/09/09 03:43:15;;;;;;;35.17;19.92;;;12.80;73.40;;;;;;5115677;28;20023;-71
2021/09/09 03:45:40;;;;;;;26.63;18.83;;;13.20;72.40;;;;;;5115990;28;20050;-72
2021/09/09 03:48:06;;;;;;;24.80;17.98;;;13.70;71.30;;;;;;5115291;28;20508;-71
2021/09/09 03:50:32;;;;;;;27.73;18.85;;;14.20;70.10;;;;;;5115418;28;20063;-71
2021/09/09 03:52:58;;;;;;;34.75;18.38;;;14.70;68.80;;;;;;5115331;28;20031;-71
2021/09/09 03:55:23;;;;;;;27.40;17.60;;;15.30;67.50;;;;;;5115185;28;20023;-71
2021/09/09 03:57:49;;;;;;;31.25;17.52;;;15.80;66.00;;;;;;5115118;28;20043;-71
2021/09/09 04:00:17;;;;;;;33.22;18.00;;;16.40;64.60;;;;;;5097157;28;20038;-73
2021/09/09 04:02:43;;;;;;;28.02;17.25;;;17.00;63.20;;;;;;5115403;28;20046;-74
2021/09/09 04:05:09;;;;;;;25.10;16.58;;;17.60;61.80;;;;;;5115580;28;20027;-72
2021/09/09 04:07:35;;;;;;;30.45;16.88;;;18.20;60.30;;;;;;5115415;28;20020;-72
2021/09/09 04:10:00;;;;;;;27.25;16.52;;;18.80;58.90;;;;;;5115294;28;20414;-72
2021/09/09 04:12:26;;;;;;;21.58;15.65;;;19.30;57.50;;;;;;5114841;28;20556;-71
2021/09/09 04:14:52;;;;;;;31.05;17.15;;;19.90;56.20;;;;;;5114942;28;20023;-73
2021/09/09 04:17:18;;;;;;;28.77;16.45;;;20.50;54.90;;;;;;5114783;28;20028;-72
2021/09/09 04:19:44;;;;;;;29.73;16.42;;;21.00;53.40;;;;;;5114951;28;20485;-71
2021/09/09 04:22:11;;;;;;;27.77;16.23;;;21.60;52.40;;;;;;5114658;28;20024;-72
2021/09/09 04:24:37;;;;;;;27.10;15.23;;;22.10;51.20;;;;;;5115071;28;20046;-73
2021/09/09 04:27:04;;;;;;;27.25;15.93;;;22.70;50.00;;;;;;5115229;28;20057;-72
2021/09/09 04:29:30;;;;;;;31.40;16.65;;;23.30;48.90;;;;;;5114961;28;20024;-72
2021/09/09 04:31:56;;;;;;;33.50;16.40;;;23.80;47.90;;;;;;5114258;28;20458;-71
2021/09/09 04:34:22;;;;;;;26.40;15.93;;;24.30;47.00;;;;;;5114645;28;20031;-71
2021/09/09 04:36:47;;;;;;;31.35;15.77;;;24.70;46.00;;;;;;5114486;28;20054;-72
2021/09/09 04:39:13;;;;;;;24.35;16.05;;;25.20;45.30;;;;;;5113940;28;20024;-71
2021/09/09 04:41:40;;;;;;;25.27;14.93;;;25.70;44.60;;;;;;5113915;28;20019;-72
2021/09/09 04:44:06;;;;;;;20.67;15.95;;;26.20;43.90;;;;;;5113741;28;20032;-72
2021/09/09 04:46:32;;;;;;;26.20;15.73;;;26.60;43.30;;;;;;5113780;28;20374;-72
2021/09/09 04:48:58;;;;;;;24.65;15.45;;;27.10;42.90;;;;;;5113843;28;20088;-72
2021/09/09 04:51:24;;;;;;;22.48;15.20;;;27.50;42.40;;;;;;5114076;28;20031;-73
2021/09/09 04:53:50;;;;;;;22.90;15.07;;;27.80;41.80;;;;;;5113966;28;20498;-73
2021/09/09 04:56:16;;;;;;;25.73;14.68;;;28.10;41.20;;;;;;5113741;28;20024;-73
2021/09/09 04:58:42;;;;;;;28.65;16.08;;;28.50;40.90;;;;;;5112925;28;20070;-74
2021/09/09 05:01:07;;;;;;;23.15;15.02;;;28.80;40.40;;;;;;5112437;28;20059;-73
2021/09/09 05:03:33;;;;;;;29.90;15.70;;;29.00;40.10;;;;;;5113188;28;20038;-73
2021/09/09 05:05:59;;;;;;;29.65;15.77;;;29.40;39.80;;;;;;5112666;28;20023;-73
2021/09/09 05:08:25;;;;;;;25.27;15.15;;;29.60;39.50;;;;;;5113203;28;20024;-73
2021/09/09 05:10:51;;;;;;;22.10;14.43;;;30.00;39.20;;;;;;5113637;28;20042;-72
2021/09/09 05:13:16;;;;;;;28.23;15.30;;;30.30;38.90;;;;;;5113531;28;20020;-73
2021/09/09 05:15:42;;;;;;;23.88;15.05;;;30.70;38.70;;;;;;5113063;28;20032;-73
2021/09/09 05:18:08;;;;;;;23.88;14.55;;;31.00;38.30;;;;;;5113361;28;20024;-74
2021/09/09 05:20:34;;;;;;;27.23;14.75;;;31.20;38.00;;;;;;5112529;28;20035;-75
2021/09/09 05:23:00;;;;;;;29.50;14.68;;;31.50;37.80;;;;;;5113345;28;20023;-73
2021/09/09 05:25:25;;;;;;;26.77;14.38;;;31.80;37.50;;;;;;5112923;28;20069;-73
2021/09/09 05:27:51;;;;;;;23.77;14.20;;;32.10;37.30;;;;;;5113007;28;20123;-74
2021/09/09 05:30:17;;;;;;;31.38;15.80;;;32.30;36.90;;;;;;5111388;28;20031;-73
2021/09/09 05:32:43;;;;;;;25.60;15.80;;;32.60;36.90;;;;;;5111559;28;20074;-74
2021/09/09 05:35:09;;;;;;;28.15;15.55;;;32.70;36.60;;;;;;5112329;28;20163;-74
2021/09/09 05:37:35;;;;;;;25.23;15.30;;;32.90;36.40;;;;;;5112533;28;20027;-73
2021/09/09 05:40:02;;;;;;;22.23;14.05;;;33.20;36.30;;;;;;5112457;28;20054;-74
2021/09/09 05:42:27;;;;;;;23.13;14.57;;;33.30;35.90;;;;;;5111047;28;20400;-72
2021/09/09 05:44:53;;;;;;;24.63;14.05;;;33.50;35.90;;;;;;5112770;28;20030;-73
2021/09/09 05:47:20;;;;;;;26.77;14.40;;;33.80;35.90;;;;;;5112731;28;20026;-74
2021/09/09 05:49:46;;;;;;;26.25;14.82;;;34.10;35.60;;;;;;5113096;28;20106;-74
2021/09/09 05:52:12;;;;;;;22.55;13.90;;;34.40;35.30;;;;;;5094588;28;20028;-74
2021/09/09 05:54:38;;;;;;;24.50;15.13;;;34.60;35.20;;;;;;5112874;28;20054;-74
2021/09/09 05:57:05;;;;;;;22.55;14.15;;;34.90;35.10;;;;;;5112634;28;20031;-74
2021/09/09 05:59:30;;;;;;;26.42;13.65;;;35.00;34.80;;;;;;5110347;28;20044;-74
2021/09/09 06:01:57;;;;;;;19.90;13.57;;;35.20;34.80;;;;;;5112156;28;20094;-73
2021/09/09 06:04:26;;;;;;;20.20;14.20;;;35.30;34.70;;;;;;5112223;28;20077;-74
2021/09/09 06:06:52;;;;;;;21.60;13.63;;;35.60;34.70;;;;;;5112064;28;20311;-74
2021/09/09 06:09:18;;;;;;;24.35;13.20;;;35.90;34.50;;;;;;5112086;28;20160;-73
2021/09/09 06:11:43;;;;;;;20.52;13.80;;;36.40;34.50;;;;;;5112206;28;20031;-74
2021/09/09 06:14:09;;;;;;;16.52;13.43;;;36.70;34.20;;;;;;5112039;28;20514;-75
2021/09/09 06:16:35;;;;;;;22.02;14.43;;;37.10;34.00;;;;;;5112093;28;20024;-74
2021/09/09 06:19:01;;;;;;;29.73;13.90;;;37.40;33.70;;;;;;5112277;28;20063;-74
2021/09/09 06:21:27;;;;;;;22.17;13.25;;;37.70;33.60;;;;;;5106076;28;20051;-74
2021/09/09 06:23:52;;;;;;;22.73;14.23;;;38.10;33.40;;;;;;5109909;28;20061;-74
2021/09/09 06:26:19;;;;;;;22.55;14.50;;;38.30;33.20;;;;;;5088045;28;20024;-74
2021/09/09 06:28:46;;;;;;;22.35;13.95;;;38.50;33.00;;;;;;5100811;28;20024;-74
2021/09/09 06:31:11;;;;;;;21.90;14.10;;;38.80;32.90;;;;;;5112207;28;20099;-74
2021/09/09 06:33:37;;;;;;;22.20;14.73;;;39.10;32.90;;;;;;5112363;28;20436;-74
2021/09/09 06:36:03;;;;;;;20.50;15.23;;;39.20;32.70;;;;;;5093684;28;20031;-74
2021/09/09 06:38:29;;;;;;;23.88;15.07;;;39.30;32.60;;;;;;5112521;28;20077;-72
2021/09/09 06:40:55;;;;;;;19.95;13.82;;;39.50;32.60;;;;;;5112182;28;20051;-73
2021/09/09 06:43:21;;;;;;;21.67;14.27;;;39.70;32.60;;;;;;5112262;28;20056;-73
2021/09/09 06:45:47;;;;;;;22.45;14.25;;;39.80;32.60;;;;;;5111940;28;20024;-73
2021/09/09 06:48:13;;;;;;;23.95;15.25;;;39.90;32.60;;;;;;5093841;28;20028;-74
2021/09/09 06:50:39;;;;;;;22.27;13.45;;;40.00;32.50;;;;;;5112086;28;20028;-74
2021/09/09 06:53:05;;;;;;;18.38;13.25;;;40.10;32.40;;;;;;5112452;28;20030;-74
2021/09/09 06:55:30;;;;;;;25.05;13.82;;;40.10;32.40;;;;;;5112356;28;20036;-74
2021/09/09 06:57:57;;;;;;;23.45;13.57;;;40.10;32.40;;;;;;5112204;28;20036;-74
2021/09/09 07:00:23;;;;;;;17.88;13.25;;;40.10;32.40;;;;;;5111897;28;20108;-74
2021/09/09 07:02:49;;;;;;;18.67;13.40;;;40.10;32.30;;;;;;5111787;28;20048;-75
2021/09/09 07:05:15;;;;;;;24.02;13.82;;;40.00;32.50;;;;;;5112036;28;20048;-73
2021/09/09 07:07:41;;;;;;;21.73;13.73;;;40.00;32.40;;;;;;5112500;28;20043;-73
2021/09/09 07:10:08;;;;;;;20.27;12.55;;;40.00;32.40;;;;;;5112120;28;20389;-74
2021/09/09 07:12:34;;;;;;;20.63;12.38;;;40.00;32.40;;;;;;5112148;28;20393;-74
2021/09/09 07:15:00;;;;;;;19.45;11.93;;;40.00;32.40;;;;;;5112391;28;20098;-74
2021/09/09 07:17:26;;;;;;;17.63;12.27;;;39.90;32.40;;;;;;5112267;28;20107;-74
2021/09/09 07:19:51;;;;;;;16.15;11.35;;;39.80;32.20;;;;;;5112104;28;20027;-73
2021/09/09 07:22:17;;;;;;;23.23;12.60;;;39.80;32.20;;;;;;5111906;28;20024;-75
2021/09/09 07:24:43;;;;;;;16.55;11.57;;;39.60;32.80;;;;;;5115007;28;20467;-78
2021/09/09 07:27:08;;;;;;;17.27;11.23;;;39.50;32.20;;;;;;5115230;28;20026;-75
2021/09/09 07:29:34;;;;;;;13.55;11.07;;;39.40;32.40;;;;;;5103060;28;20398;-74
2021/09/09 07:32:00;;;;;;;17.25;11.43;;;39.40;32.50;;;;;;5114990;28;20055;-74
2021/09/09 07:34:26;;;;;;;24.30;13.95;;;39.20;32.60;;;;;;5115333;28;20032;-74
2021/09/09 07:36:53;;;;;;;21.63;11.00;;;39.00;32.70;;;;;;5115050;28;20385;-75
2021/09/09 07:39:19;;;;;;;15.30;10.38;;;38.90;32.70;;;;;;5114692;28;20028;-74
2021/09/09 07:41:45;;;;;;;18.17;10.27;;;38.70;32.80;;;;;;5114916;28;20048;-75
2021/09/09 07:44:11;;;;;;;13.90;10.40;;;38.60;32.90;;;;;;5111526;28;20043;-74
2021/09/09 07:46:37;;;;;;;14.60;10.63;;;38.40;32.90;;;;;;5103271;28;20331;-75
2021/09/09 07:49:03;;;;;;;11.80;10.40;;;38.10;33.00;;;;;;5094629;28;20471;-74
2021/09/09 07:51:29;;;;;;;15.27;11.15;;;37.80;33.20;;;;;;5107058;28;20023;-75
2021/09/09 07:53:55;;;;;;;21.83;13.43;;;37.60;33.20;;;;;;5114656;28;20020;-75
2021/09/09 07:56:21;;;;;;;13.60;11.18;;;37.30;33.60;;;;;;5106058;28;20028;-75
2021/09/09 07:58:49;;;;;;;14.15;10.05;;;37.10;33.80;;;;;;5104157;28;20505;-78
2021/09/09 08:01:19;;;;;;;17.75;10.60;;;36.80;33.80;;;;;;5108112;28;20413;-73
2021/09/09 08:03:46;;;;;;;14.15;9.73;;;36.60;34.10;;;;;;5105893;28;20090;-75
2021/09/09 08:06:13;;;;;;;13.65;10.25;;;36.40;34.40;;;;;;5115161;28;20020;-75
2021/09/09 08:08:39;;;;;;;17.95;11.50;;;36.20;34.60;;;;;;5115208;28;20099;-74
2021/09/09 08:11:04;;;;;;;13.93;10.00;;;36.10;34.80;;;;;;5108680;28;20036;-75
2021/09/09 08:13:30;;;;;;;20.52;11.95;;;35.90;34.90;;;;;;5114314;28;20027;-76
2021/09/09 08:15:56;;;;;;;18.33;12.30;;;35.80;34.90;;;;;;5114494;28;20030;-76
2021/09/09 08:18:23;;;;;;;22.33;14.75;;;35.70;35.00;;;;;;5108557;28;20028;-75
2021/09/09 08:20:49;;;;;;;17.20;10.80;;;35.60;35.20;;;;;;5095750;28;20114;-75
2021/09/09 08:23:14;;;;;;;15.02;10.45;;;35.50;35.30;;;;;;5114070;28;20099;-75
2021/09/09 08:25:40;;;;;;;13.68;10.60;;;35.40;35.30;;;;;;5107471;28;20070;-75
2021/09/09 08:28:06;;;;;;;15.10;11.40;;;35.40;35.40;;;;;;5110772;28;20033;-75
2021/09/09 08:30:31;;;;;;;15.02;9.90;;;35.30;35.40;;;;;;5102654;28;20024;-74
2021/09/09 08:32:57;;;;;;;18.50;10.27;;;35.20;35.50;;;;;;5104288;28;20020;-76
2021/09/09 08:35:24;;;;;;;15.68;10.48;;;35.10;36.30;;;;;;5113835;28;20035;-75
2021/09/09 08:37:50;;;;;;;19.40;10.50;;;35.00;35.60;;;;;;5113724;28;20488;-75
2021/09/09 08:40:15;;;;;;;16.88;9.95;;;34.90;35.80;;;;;;5095508;28;20035;-74
2021/09/09 08:42:43;;;;;;;18.27;9.90;;;34.80;35.60;;;;;;5114137;28;20020;-75
2021/09/09 08:45:10;;;;;;;13.65;9.70;;;34.70;35.70;;;;;;5107571;28;20082;-75
2021/09/09 08:47:39;;;;;;;15.93;9.90;;;34.60;35.80;;;;;;5098185;28;20020;-76
2021/09/09 08:50:05;;;;;;;12.00;9.02;;;34.50;36.20;;;;;;5075334;28;20039;-75
2021/09/09 08:52:32;;;;;;;15.20;9.05;;;34.40;36.20;;;;;;5097131;28;20027;-75
2021/09/09 08:54:57;;;;;;;14.23;8.98;;;34.30;36.20;;;;;;5113675;28;20024;-74
2021/09/09 08:57:23;;;;;;;13.82;10.00;;;34.20;36.40;;;;;;5107088;28;20039;-74
2021/09/09 08:59:49;;;;;;;17.70;9.63;;;34.10;36.40;;;;;;5094877;28;20446;-74
2021/09/09 09:02:15;;;;;;;16.55;9.50;;;34.10;36.30;;;;;;5093579;28;20024;-74
2021/09/09 09:04:41;;;;;;;14.63;10.38;;;34.00;36.30;;;;;;5112873;28;20363;-76
2021/09/09 09:07:08;;;;;;;14.90;8.90;;;34.00;36.50;;;;;;5113410;28;20091;-76
2021/09/09 09:09:38;;;;;;;11.32;9.43;;;33.80;36.30;;;;;;5113759;28;20027;-76
2021/09/09 09:12:09;;;;;;;14.00;9.35;;;33.70;36.50;;;;;;5113351;28;20454;-76
2021/09/09 09:14:35;;;;;;;15.90;9.88;;;33.60;36.50;;;;;;5112898;28;20036;-75
2021/09/09 09:17:03;;;;;;;13.35;9.20;;;33.50;36.80;;;;;;5112907;28;20474;-76
2021/09/09 09:19:36;;;;;;;21.85;10.00;;;33.40;36.90;;;;;;5094863;28;20069;-75
2021/09/09 09:22:11;;;;;;;14.10;9.80;;;33.30;36.80;;;;;;5113765;28;20047;-75
2021/09/09 09:24:47;;;;;;;15.88;10.30;;;33.20;36.90;;;;;;5113899;28;20410;-75
2021/09/09 09:27:15;;;;;;;16.55;9.52;;;33.20;37.00;;;;;;5113628;28;20030;-74
2021/09/09 09:29:58;;;;;;;15.25;10.60;;;33.10;37.20;;;;;;5112779;28;20064;-76
2021/09/09 09:32:23;;;;;;;14.82;10.57;;;33.10;37.20;;;;;;5112383;28;20077;-76
2021/09/09 09:34:49;;;;;;;14.00;9.65;;;33.00;37.20;;;;;;5112615;28;20027;-75
2021/09/09 09:37:22;;;;;;;15.98;9.68;;;32.90;37.40;;;;;;5112546;28;20442;-75
2021/09/09 09:39:48;;;;;;;15.43;9.90;;;32.80;37.30;;;;;;5094429;28;20077;-76
2021/09/09 09:42:14;;;;;;;11.48;9.20;;;32.70;37.40;;;;;;5095081;28;20102;-76
2021/09/09 09:44:42;;;;;;;12.95;8.80;;;32.70;37.70;;;;;;5112427;28;20016;-74
2021/09/09 09:47:20;;;;;;;16.85;9.60;;;32.60;37.70;;;;;;5112045;28;20088;-74
2021/09/09 09:49:48;;;;;;;15.00;10.25;;;32.40;37.60;;;;;;5112370;28;20388;-74
2021/09/09 09:52:29;;;;;;;17.90;10.05;;;32.30;37.80;;;;;;5112301;28;20100;-74
2021/09/09 09:54:59;;;;;;;19.98;9.60;;;32.20;38.10;;;;;;5112156;28;20450;-75
2021/09/09 09:57:27;;;;;;;14.47;9.90;;;32.10;38.20;;;;;;5112153;28;20505;-74
2021/09/09 09:59:53;;;;;;;11.60;8.48;;;32.10;38.10;;;;;;5112498;28;20067;-75
2021/09/09 10:02:19;;;;;;;14.07;9.13;;;32.10;38.00;;;;;;5094238;28;20024;-74
2021/09/09 10:04:47;;;;;;;16.75;10.63;;;32.00;38.10;;;;;;5111843;28;20106;-74
2021/09/09 10:07:14;;;;;;;15.15;10.82;;;32.00;38.30;;;;;;5112333;28;20055;-74
2021/09/09 10:09:41;;;;;;;14.48;10.45;;;32.00;38.30;;;;;;5112596;28;20064;-75
2021/09/09 10:12:11;;;;;;;20.10;10.52;;;31.80;38.30;;;;;;5112962;28;20385;-75
2021/09/09 10:14:46;;;;;;;19.63;10.68;;;31.80;38.40;;;;;;5112755;28;20465;-74
2021/09/09 10:17:12;;;;;;;14.75;9.82;;;31.80;38.70;;;;;;5094132;28;20107;-76
2021/09/09 10:19:38;;;;;;;16.33;10.40;;;31.80;38.50;;;;;;5112611;28;20459;-69
2021/09/09 10:22:12;;;;;;;12.48;9.20;;;31.70;38.60;;;;;;5111262;28;20016;-69
2021/09/09 10:24:43;;;;;;;14.13;9.25;;;31.70;38.60;;;;;;5093623;28;20028;-71
2021/09/09 10:27:17;;;;;;;19.52;9.57;;;31.70;38.50;;;;;;5111436;28;20374;-71
2021/09/09 10:29:47;;;;;;;16.60;9.20;;;31.60;38.80;;;;;;5111289;28;20031;-70
2021/09/09 10:32:37;;;;;;;12.85;9.57;;;31.50;39.00;;;;;;5111312;28;20028;-70
2021/09/09 10:35:18;;;;;;;18.38;10.70;;;31.40;39.30;;;;;;5111559;28;20783;-69
2021/09/09 10:37:45;;;;;;;13.63;9.65;;;31.30;39.50;;;;;;5093007;28;20032;-69
2021/09/09 10:40:31;;;;;;;23.92;10.25;;;31.30;39.40;;;;;;5105712;28;20028;-69
2021/09/09 10:42:59;;;;;;;61.80;13.35;;;31.20;39.50;;;;;;5096958;28;20028;-69
2021/09/09 10:45:34;;;;;;;30.20;10.63;;;31.00;39.50;;;;;;5100422;28;20051;-69
2021/09/09 10:48:02;;;;;;;37.38;11.73;;;30.90;39.80;;;;;;5111263;28;20058;-71
2021/09/09 10:50:28;;;;;;;18.33;10.38;;;31.00;40.20;;;;;;5104945;28;20031;-70
2021/09/09 10:53:04;;;;;;;14.95;9.95;;;30.90;40.70;;;;;;5097522;28;20028;-70
2021/09/09 10:55:31;;;;;;;13.50;9.57;;;30.80;40.60;;;;;;5093210;28;20327;-69
2021/09/09 10:58:15;;;;;;;18.48;10.48;;;30.70;40.80;;;;;;5093870;28;20139;-69
2021/09/09 11:00:54;;;;;;;19.15;10.05;;;30.60;41.20;;;;;;5106855;28;20032;-71
2021/09/09 11:03:40;;;;;;;13.82;9.40;;;30.40;41.40;;;;;;5112885;28;20027;-70
2021/09/09 11:06:25;;;;;;;15.40;12.55;;;30.20;41.70;;;;;;5103710;28;20015;-69
2021/09/09 11:08:53;;;;;;;96.57;15.40;;;30.00;41.80;;;;;;5094981;28;20019;-69
2021/09/09 11:11:30;;;;;;;15.30;10.75;;;29.90;42.30;;;;;;5097144;28;20024;-69
2021/09/09 11:14:06;;;;;;;20.10;10.35;;;29.80;42.60;;;;;;5106688;28;20030;-69
2021/09/09 11:16:35;;;;;;;48.40;12.07;;;29.60;42.50;;;;;;5105352;27;20106;-69
2021/09/09 11:19:01;;;;;;;20.90;11.07;;;29.50;42.70;;;;;;5094613;28;20052;-71
2021/09/09 11:21:30;;;;;;;14.82;10.13;;;29.50;42.80;;;;;;5103960;28;20031;-69
2021/09/09 11:24:04;;;;;;;15.65;10.20;;;29.50;42.60;;;;;;5094193;28;20024;-70
2021/09/09 11:26:30;;;;;;;16.85;12.18;;;29.30;42.70;;;;;;5094549;28;20841;-70
2021/09/09 11:28:58;;;;;;;13.30;10.48;;;29.20;43.00;;;;;;5105525;28;20043;-71
2021/09/09 11:31:26;;;;;;;15.00;10.60;;;29.20;43.30;;;;;;5093954;28;20025;-71
2021/09/09 11:34:04;;;;;;;18.45;9.98;;;29.10;43.50;;;;;;5094503;28;20122;-70
2021/09/09 11:36:29;;;;;;;12.82;9.95;;;29.00;43.50;;;;;;5094215;28;20017;-71
2021/09/09 11:38:59;;;;;;;16.05;10.60;;;29.00;43.50;;;;;;5094053;28;20526;-70
2021/09/09 11:41:29;;;;;;;11.52;9.38;;;29.00;43.80;;;;;;5094155;28;20027;-70
2021/09/09 11:43:58;;;;;;;16.63;10.40;;;28.90;43.70;;;;;;5093970;28;20020;-69
2021/09/09 11:46:30;;;;;;;11.50;10.00;;;28.90;43.70;;;;;;5108637;28;20436;-71
2021/09/09 11:49:06;;;;;;;16.45;10.23;;;28.70;43.80;;;;;;5113117;28;20373;-71
2021/09/09 11:51:41;;;;;;;23.52;13.48;;;28.70;43.90;;;;;;5105523;28;20023;-70
2021/09/09 11:54:17;;;;;;;18.30;11.45;;;28.60;44.20;;;;;;5093966;28;20364;-70
2021/09/09 11:56:44;;;;;;;16.60;9.50;;;28.60;43.90;;;;;;5074255;28;20028;-70
2021/09/09 11:59:12;;;;;;;25.77;11.73;;;28.60;43.70;;;;;;5103875;28;20085;-70
2021/09/09 12:01:39;;;;;;;14.35;9.80;;;28.60;43.90;;;;;;5111167;28;20058;-72
2021/09/09 12:04:05;;;;;;;14.75;9.40;;;28.50;44.10;;;;;;5094495;28;20032;-72
2021/09/09 12:06:32;;;;;;;17.45;9.85;;;28.50;44.00;;;;;;5099118;28;20049;-73
2021/09/09 12:08:58;;;;;;;13.60;9.85;;;28.40;43.90;;;;;;5097819;28;20024;-72
2021/09/09 12:11:25;;;;;;;18.92;10.05;;;28.30;44.00;;;;;;5107973;28;20016;-72
2021/09/09 12:13:51;;;;;;;19.35;10.80;;;28.20;44.00;;;;;;5102310;28;20045;-72
2021/09/09 12:16:20;;;;;;;16.02;10.23;;;28.20;44.20;;;;;;5093357;28;20027;-70
2021/09/09 12:18:49;;;;;;;18.85;10.98;;;28.20;44.40;;;;;;5111197;28;20022;-72
2021/09/09 12:21:17;;;;;;;19.55;10.65;;;28.10;44.70;;;;;;5095206;28;20138;-70
2021/09/09 12:23:59;;;;;;;19.00;8.90;;;28.00;44.40;;;;;;5113594;28;20019;-71
2021/09/09 12:26:25;;;;;;;13.80;10.10;;;28.10;43.80;;;;;;5113300;28;20027;-73
2021/09/09 12:28:51;;;;;;;15.23;10.00;;;28.00;43.40;;;;;;5113308;28;20024;-71